Time;durP1;ratioP1;P1;durP2;ratioP2;P2;SDS_P1;SDS_P2;PMS_P1;PMS_P2;Temp;Humidity;BMP_temperature;BMP_pressure;BME280_temperature;BME280_humidity;BME280_pressure;Samples;Min_cycle;Max_cycle;Signal;HPM_P1;HPM_P2
2022/08/15 00:03:46;;;;;;;9.88;6.28;;;;;;;;;;10096379;28;20089;-68
2022/08/15 00:08:59;;;;;;;10.57;5.85;;;;;;;;;;10096450;28;20501;-68
2022/08/15 00:14:02;;;;;;;12.30;5.70;;;;;;;;;;10098100;28;20683;-68
2022/08/15 00:19:12;;;;;;;7.10;5.80;;;;;;;;;;10102777;28;20090;-68
2022/08/15 00:24:08;;;;;;;7.55;5.60;;;;;;;;;;10098134;28;20094;-67
2022/08/15 00:29:17;;;;;;;6.40;5.50;;;;;;;;;;10098020;28;20055;-67
2022/08/15 00:34:33;;;;;;;7.47;5.97;;;;;;;;;;10097757;28;20577;-67
2022/08/15 00:39:35;;;;;;;9.18;5.13;;;;;;;;;;10094393;28;20047;-67
2022/08/15 00:44:44;;;;;;;8.02;5.43;;;;;;;;;;10110719;28;20047;-67
2022/08/15 00:50:00;;;;;;;9.52;5.80;;;;;;;;;;10102123;28;20429;-67
2022/08/15 00:55:00;;;;;;;6.82;5.35;;;;;;;;;;10098776;28;20051;-68
2022/08/15 00:59:59;;;;;;;31.02;6.68;;;;;;;;;;10107578;28;20055;-69
2022/08/15 01:10:08;;;;;;;7.97;5.70;;;;;;;;;;10106456;23;20134;-70
2022/08/15 01:15:20;;;;;;;7.35;5.15;;;;;;;;;;10024855;29;20056;-71
2022/08/15 01:20:26;;;;;;;7.32;5.30;;;;;;;;;;9999358;29;20665;-70
2022/08/15 01:25:25;;;;;;;9.38;5.28;;;;;;;;;;9979554;29;20984;-70
2022/08/15 01:30:53;;;;;;;12.02;6.20;;;;;;;;;;9989422;28;20047;-70
2022/08/15 01:35:59;;;;;;;7.05;4.82;;;;;;;;;;9979067;29;20044;-70
2022/08/15 01:41:17;;;;;;;7.88;5.28;;;;;;;;;;9988108;29;20048;-70
2022/08/15 01:46:23;;;;;;;8.77;4.75;;;;;;;;;;9991434;29;20043;-70
2022/08/15 01:51:21;;;;;;;8.38;5.30;;;;;;;;;;9986142;29;20131;-70
2022/08/15 01:56:19;;;;;;;6.07;4.95;;;;;;;;;;9984969;29;20075;-70
2022/08/15 02:01:39;;;;;;;6.32;5.18;;;;;;;;;;9992520;29;20586;-70
2022/08/15 02:06:38;;;;;;;9.50;5.28;;;;;;;;;;9978019;29;20056;-69
2022/08/15 02:11:36;;;;;;;9.00;5.13;;;;;;;;;;10001511;29;20075;-70
2022/08/15 02:16:37;;;;;;;6.20;4.72;;;;;;;;;;9972407;29;20144;-70
2022/08/15 02:21:34;;;;;;;7.55;4.60;;;;;;;;;;9986708;29;20587;-70
2022/08/15 02:26:32;;;;;;;5.68;4.35;;;;;;;;;;9987923;29;20056;-70
2022/08/15 02:31:29;;;;;;;6.05;5.07;;;;;;;;;;9982580;29;20540;-70
2022/08/15 02:36:31;;;;;;;6.47;5.22;;;;;;;;;;9975163;29;20606;-70
2022/08/15 02:41:51;;;;;;;11.20;5.32;;;;;;;;;;9985765;29;20056;-70
2022/08/15 02:46:52;;;;;;;7.60;5.40;;;;;;;;;;9979654;29;20048;-70
2022/08/15 02:52:03;;;;;;;;;;;;;;;;;;9982534;29;20076;-70
2022/08/15 02:57:00;;;;;;;6.00;5.38;;;;;;;;;;9983611;29;19954;-70
2022/08/15 03:01:57;;;;;;;8.23;5.05;;;;;;;;;;9981446;28;20526;-70
2022/08/15 03:06:56;;;;;;;6.97;5.22;;;;;;;;;;9974864;29;20054;-71
2022/08/15 03:11:55;;;;;;;5.90;4.80;;;;;;;;;;9975277;29;20044;-70
2022/08/15 03:16:53;;;;;;;8.82;5.82;;;;;;;;;;9979854;29;20139;-70
2022/08/15 03:21:50;;;;;;;7.30;6.00;;;;;;;;;;9985167;29;20128;-70
2022/08/15 03:26:50;;;;;;;7.55;6.13;;;;;;;;;;9986019;29;21255;-70
2022/08/15 03:31:51;;;;;;;8.25;4.90;;;;;;;;;;9971637;29;20126;-70
2022/08/15 03:36:48;;;;;;;6.70;5.35;;;;;;;;;;9976644;29;20077;-70
2022/08/15 03:41:48;;;;;;;6.38;5.32;;;;;;;;;;9996998;29;20546;-70
2022/08/15 03:46:51;;;;;;;6.30;5.47;;;;;;;;;;9976096;29;20116;-70
2022/08/15 03:51:47;;;;;;;8.48;5.80;;;;;;;;;;9963045;29;20049;-70
2022/08/15 03:56:45;;;;;;;6.25;5.57;;;;;;;;;;9981581;29;20052;-69
2022/08/15 04:01:43;;;;;;;8.07;6.10;;;;;;;;;;9997295;29;20048;-70
2022/08/15 04:06:42;;;;;;;8.18;6.18;;;;;;;;;;10001017;29;20108;-70
2022/08/15 04:11:39;;;;;;;8.85;6.68;;;;;;;;;;9997760;29;20442;-70
2022/08/15 04:16:36;;;;;;;7.50;6.05;;;;;;;;;;9997521;29;20529;-70
2022/08/15 04:21:52;;;;;;;14.98;7.15;;;;;;;;;;10004683;29;20155;-70
2022/08/15 04:26:49;;;;;;;7.47;5.50;;;;;;;;;;9996731;29;20095;-69
2022/08/15 04:31:48;;;;;;;7.25;5.95;;;;;;;;;;9989240;29;20556;-69
2022/08/15 04:36:50;;;;;;;7.50;6.80;;;;;;;;;;9996086;29;20058;-69
2022/08/15 04:41:46;;;;;;;12.45;7.32;;;;;;;;;;10000126;29;20082;-70
2022/08/15 04:46:46;;;;;;;7.68;6.25;;;;;;;;;;9989727;29;20048;-70
2022/08/15 04:51:42;;;;;;;8.52;6.55;;;;;;;;;;9985732;29;20469;-70
2022/08/15 04:56:39;;;;;;;8.10;5.97;;;;;;;;;;9985446;29;20083;-70
2022/08/15 05:01:46;;;;;;;7.35;6.55;;;;;;;;;;9982179;29;20048;-70
2022/08/15 05:07:00;;;;;;;9.82;7.07;;;;;;;;;;9984321;29;20055;-70
2022/08/15 05:12:03;;;;;;;7.88;5.90;;;;;;;;;;9987631;29;20427;-71
2022/08/15 05:17:08;;;;;;;9.98;6.78;;;;;;;;;;9985841;29;20060;-71
2022/08/15 05:22:06;;;;;;;9.95;6.95;;;;;;;;;;9986835;29;20059;-71
2022/08/15 05:27:04;;;;;;;9.38;7.65;;;;;;;;;;9986712;29;20056;-71
2022/08/15 05:32:05;;;;;;;;;;;;;;;;;;9987976;29;20052;-70
2022/08/15 05:37:02;;;;;;;10.43;6.90;;;;;;;;;;9986514;29;20417;-70
2022/08/15 05:42:01;;;;;;;10.13;6.43;;;;;;;;;;9979839;29;20524;-70
2022/08/15 05:47:12;;;;;;;8.95;7.95;;;;;;;;;;9980162;29;20064;-70
2022/08/15 05:52:22;;;;;;;9.07;7.35;;;;;;;;;;9973909;29;20506;-70
2022/08/15 05:57:33;;;;;;;8.88;7.22;;;;;;;;;;9985429;29;20060;-69
2022/08/15 06:02:37;;;;;;;9.38;7.80;;;;;;;;;;9990964;29;20421;-69
2022/08/15 06:07:52;;;;;;;7.45;6.75;;;;;;;;;;9984461;29;20051;-69
2022/08/15 06:13:02;;;;;;;9.93;7.90;;;;;;;;;;10003699;29;20125;-69
2022/08/15 06:18:02;;;;;;;9.25;7.43;;;;;;;;;;9978796;29;20044;-69
2022/08/15 06:23:17;;;;;;;9.35;7.72;;;;;;;;;;9985361;29;20487;-70
2022/08/15 06:28:51;;;;;;;11.05;8.02;;;;;;;;;;9984325;29;20048;-70
2022/08/15 06:34:10;;;;;;;13.13;8.27;;;;;;;;;;9981583;29;20072;-70
2022/08/15 06:39:30;;;;;;;8.70;7.95;;;;;;;;;;9976196;29;20048;-70
2022/08/15 06:44:26;;;;;;;8.73;7.82;;;;;;;;;;9986369;29;20040;-70
2022/08/15 06:49:26;;;;;;;8.68;7.60;;;;;;;;;;9977909;29;20135;-69
2022/08/15 06:54:32;;;;;;;9.57;8.55;;;;;;;;;;9982447;29;20092;-69
2022/08/15 06:59:42;;;;;;;9.70;8.80;;;;;;;;;;9981687;29;20506;-68
2022/08/15 07:05:05;;;;;;;10.30;9.30;;;;;;;;;;9977906;29;20075;-69
2022/08/15 07:10:08;;;;;;;10.90;9.27;;;;;;;;;;9974716;29;20132;-69
2022/08/15 07:15:18;;;;;;;10.93;9.20;;;;;;;;;;9984504;29;20198;-69
2022/08/15 07:20:17;;;;;;;12.88;10.20;;;;;;;;;;9981340;29;20056;-68
2022/08/15 07:25:33;;;;;;;10.93;9.85;;;;;;;;;;9985209;29;20048;-69
2022/08/15 07:30:44;;;;;;;10.48;9.48;;;;;;;;;;9972367;29;20052;-68
2022/08/15 07:35:41;;;;;;;9.45;8.48;;;;;;;;;;9970585;29;20067;-69
2022/08/15 07:40:39;;;;;;;10.18;8.82;;;;;;;;;;9985636;29;20860;-69
2022/08/15 07:45:37;;;;;;;9.00;8.13;;;;;;;;;;9982585;29;20127;-69
2022/08/15 07:50:40;;;;;;;10.23;9.23;;;;;;;;;;9975803;29;20068;-69
2022/08/15 07:55:39;;;;;;;12.57;9.30;;;;;;;;;;9970329;29;20131;-68
2022/08/15 08:01:11;;;;;;;12.38;9.60;;;;;;;;;;9980513;29;20067;-68
2022/08/15 08:06:33;;;;;;;10.90;8.93;;;;;;;;;;9978740;29;20044;-68
2022/08/15 08:11:54;;;;;;;12.60;10.10;;;;;;;;;;9964545;29;20056;-68
2022/08/15 08:16:55;;;;;;;10.43;9.48;;;;;;;;;;9969942;29;20452;-67
2022/08/15 08:22:18;;;;;;;12.50;10.15;;;;;;;;;;9979169;29;20062;-68
2022/08/15 08:27:22;;;;;;;11.60;10.07;;;;;;;;;;9986219;29;20046;-67
2022/08/15 08:32:31;;;;;;;12.38;10.93;;;;;;;;;;9983147;29;20076;-68
2022/08/15 08:37:34;;;;;;;11.15;10.13;;;;;;;;;;9988312;29;20052;-68
2022/08/15 08:42:44;;;;;;;11.93;10.75;;;;;;;;;;9985681;29;20112;-68
2022/08/15 08:48:05;;;;;;;11.60;10.38;;;;;;;;;;9984988;29;20052;-68
2022/08/15 08:53:16;;;;;;;12.00;11.00;;;;;;;;;;9975769;29;20072;-67
2022/08/15 08:58:16;;;;;;;12.35;11.23;;;;;;;;;;9981647;29;20036;-67
2022/08/15 09:03:34;;;;;;;12.15;10.77;;;;;;;;;;9986725;29;20067;-68
2022/08/15 09:08:38;;;;;;;12.13;11.03;;;;;;;;;;9978091;29;20495;-68
2022/08/15 09:13:39;;;;;;;12.43;11.43;;;;;;;;;;9985266;29;21986;-68
2022/08/15 09:18:42;;;;;;;13.48;12.38;;;;;;;;;;9980371;29;20052;-68
2022/08/15 09:23:45;;;;;;;13.25;12.02;;;;;;;;;;9988404;29;20051;-68
2022/08/15 09:28:44;;;;;;;16.05;12.82;;;;;;;;;;9984405;29;20426;-68
2022/08/15 09:33:41;;;;;;;16.13;12.23;;;;;;;;;;9984327;29;20040;-70
2022/08/15 09:38:56;;;;;;;14.25;12.82;;;;;;;;;;9982746;29;21980;-68
2022/08/15 09:44:00;;;;;;;14.73;13.30;;;;;;;;;;9984949;29;20127;-68
2022/08/15 09:49:43;;;;;;;13.48;12.15;;;;;;;;;;9976941;29;20048;-68
2022/08/15 09:54:56;;;;;;;14.40;13.07;;;;;;;;;;9975513;29;20060;-68
2022/08/15 10:00:00;;;;;;;14.20;12.90;;;;;;;;;;9978658;29;20056;-68
2022/08/15 10:05:04;;;;;;;14.07;12.75;;;;;;;;;;9983737;29;20319;-68
2022/08/15 10:10:01;;;;;;;14.00;12.73;;;;;;;;;;9976927;29;20610;-68
2022/08/15 10:15:20;;;;;;;15.07;13.57;;;;;;;;;;9974837;29;20415;-68
2022/08/15 10:20:18;;;;;;;14.45;13.18;;;;;;;;;;9981821;29;20131;-67
2022/08/15 10:25:22;;;;;;;14.68;13.20;;;;;;;;;;9982534;29;20076;-68
2022/08/15 10:30:20;;;;;;;13.55;12.45;;;;;;;;;;9973046;29;20103;-68
2022/08/15 10:35:41;;;;;;;12.13;11.10;;;;;;;;;;9975355;29;20051;-68
2022/08/15 10:40:38;;;;;;;12.10;10.90;;;;;;;;;;9985329;29;20517;-68
2022/08/15 10:45:41;;;;;;;;;;;;;;;;;;9983435;29;20136;-68
2022/08/15 10:50:53;;;;;;;12.10;10.80;;;;;;;;;;9988167;29;19934;-68
2022/08/15 10:55:49;;;;;;;13.18;11.52;;;;;;;;;;9979111;29;20771;-68
2022/08/15 11:01:07;;;;;;;11.30;10.38;;;;;;;;;;9982262;29;20131;-68
2022/08/15 11:06:08;;;;;;;11.93;10.40;;;;;;;;;;9986161;29;20138;-68
2022/08/15 11:11:10;;;;;;;11.32;10.07;;;;;;;;;;9971748;29;20056;-68
2022/08/15 11:16:16;;;;;;;11.17;10.27;;;;;;;;;;9975608;29;20052;-68
2022/08/15 11:21:42;;;;;;;11.82;10.93;;;;;;;;;;9984386;29;20175;-67
2022/08/15 11:26:41;;;;;;;11.32;10.27;;;;;;;;;;9983329;29;20067;-68
2022/08/15 11:31:43;;;;;;;10.65;9.80;;;;;;;;;;9987580;29;20048;-68
2022/08/15 11:36:39;;;;;;;10.85;9.95;;;;;;;;;;9984708;29;20048;-68
2022/08/15 11:41:38;;;;;;;11.77;10.70;;;;;;;;;;9987305;29;20115;-68
2022/08/15 11:46:47;;;;;;;11.27;10.38;;;;;;;;;;9979860;29;20510;-68
2022/08/15 11:51:45;;;;;;;11.00;10.00;;;;;;;;;;9986572;29;20060;-68
2022/08/15 11:57:03;;;;;;;11.63;10.45;;;;;;;;;;9987923;29;20056;-68
2022/08/15 12:02:27;;;;;;;11.25;10.20;;;;;;;;;;9996923;29;20131;-67
2022/08/15 12:07:29;;;;;;;11.55;10.55;;;;;;;;;;9981041;29;20529;-67
2022/08/15 12:12:29;;;;;;;11.35;10.25;;;;;;;;;;9988505;29;20134;-68
2022/08/15 12:17:29;;;;;;;11.23;10.13;;;;;;;;;;9992611;29;20762;-67
2022/08/15 12:22:46;;;;;;;11.07;10.07;;;;;;;;;;9991122;29;20131;-67
2022/08/15 12:27:56;;;;;;;10.05;9.10;;;;;;;;;;9993066;29;20243;-67
2022/08/15 12:32:52;;;;;;;11.07;9.40;;;;;;;;;;9984435;29;20110;-68
2022/08/15 12:37:56;;;;;;;10.93;9.82;;;;;;;;;;9992819;29;20060;-68
2022/08/15 12:42:53;;;;;;;11.77;10.27;;;;;;;;;;9994679;29;20537;-68
2022/08/15 12:47:55;;;;;;;11.63;10.63;;;;;;;;;;9980324;29;20056;-68
2022/08/15 12:53:06;;;;;;;10.93;10.00;;;;;;;;;;9993623;29;20052;-69
2022/08/15 12:58:06;;;;;;;11.05;10.15;;;;;;;;;;9988742;29;20052;-68
2022/08/15 13:03:13;;;;;;;11.27;9.70;;;;;;;;;;9993350;29;20056;-68
2022/08/15 13:08:19;;;;;;;12.00;10.50;;;;;;;;;;9991088;29;20048;-68
2022/08/15 13:13:23;;;;;;;10.75;9.82;;;;;;;;;;9992162;29;20059;-68
2022/08/15 13:18:22;;;;;;;11.48;10.57;;;;;;;;;;9992196;29;20643;-68
2022/08/15 13:28:55;;;;;;;10.85;9.90;;;;;;;;;;9985937;29;20051;-68
2022/08/15 13:33:52;;;;;;;11.38;10.38;;;;;;;;;;9991095;29;20507;-68
2022/08/15 13:38:50;;;;;;;11.63;10.60;;;;;;;;;;9988116;29;20052;-68
2022/08/15 13:43:49;;;;;;;11.73;10.60;;;;;;;;;;9981306;29;20156;-71
2022/08/15 13:48:57;;;;;;;18.80;10.95;;;;;;;;;;9985814;29;20144;-71
2022/08/15 13:53:56;;;;;;;10.50;9.60;;;;;;;;;;9976304;29;20063;-71
2022/08/15 13:59:12;;;;;;;10.48;9.50;;;;;;;;;;9990297;29;20446;-71
2022/08/15 14:04:12;;;;;;;10.25;9.35;;;;;;;;;;9990611;29;20662;-71
2022/08/15 14:09:09;;;;;;;10.50;9.00;;;;;;;;;;9985271;29;20048;-70
2022/08/15 14:14:19;;;;;;;9.27;8.47;;;;;;;;;;9987552;29;20506;-71
2022/08/15 14:19:32;;;;;;;10.40;9.50;;;;;;;;;;9980570;29;20056;-71
2022/08/15 14:24:49;;;;;;;10.57;9.57;;;;;;;;;;9982041;29;20071;-70
2022/08/15 14:30:06;;;;;;;10.45;9.45;;;;;;;;;;9986907;29;20062;-68
2022/08/15 14:35:03;;;;;;;10.23;9.25;;;;;;;;;;10003498;29;20095;-68
2022/08/15 14:40:24;;;;;;;11.23;10.23;;;;;;;;;;9984786;29;20138;-69
2022/08/15 14:45:21;;;;;;;;;;;;;;;;;;9978566;29;20648;-68
2022/08/15 14:50:37;;;;;;;10.23;9.32;;;;;;;;;;9977275;29;19931;-68
2022/08/15 14:55:54;;;;;;;12.32;11.20;;;;;;;;;;9971925;29;20410;-68
2022/08/15 15:00:51;;;;;;;11.25;10.15;;;;;;;;;;9980299;29;20522;-68
2022/08/15 15:05:54;;;;;;;11.32;10.32;;;;;;;;;;9977307;29;20482;-68
2022/08/15 15:11:11;;;;;;;11.52;10.43;;;;;;;;;;9982023;29;20052;-68
2022/08/15 15:16:08;;;;;;;10.60;9.57;;;;;;;;;;9975445;29;20060;-69
2022/08/15 15:21:26;;;;;;;11.70;10.60;;;;;;;;;;9982003;29;20050;-68
2022/08/15 15:26:23;;;;;;;11.10;10.00;;;;;;;;;;9978395;29;20075;-68
2022/08/15 15:31:40;;;;;;;11.05;10.15;;;;;;;;;;9973650;29;20044;-67
2022/08/15 15:36:39;;;;;;;10.82;9.73;;;;;;;;;;9986029;29;20514;-67
2022/08/15 15:41:42;;;;;;;10.27;9.23;;;;;;;;;;9978065;29;20052;-67
2022/08/15 15:46:43;;;;;;;14.60;9.40;;;;;;;;;;9979293;29;20063;-68
2022/08/15 15:51:40;;;;;;;12.05;9.38;;;;;;;;;;9986957;29;20471;-68
2022/08/15 15:56:36;;;;;;;11.35;9.48;;;;;;;;;;9988524;29;20059;-67
2022/08/15 16:01:38;;;;;;;10.98;9.98;;;;;;;;;;9976578;29;20054;-70
2022/08/15 16:06:55;;;;;;;10.77;9.77;;;;;;;;;;9977897;29;20044;-69
2022/08/15 16:12:02;;;;;;;11.63;10.45;;;;;;;;;;9985748;29;20076;-68
2022/08/15 16:17:24;;;;;;;12.10;9.65;;;;;;;;;;9986258;29;20057;-67
2022/08/15 16:22:44;;;;;;;10.80;9.70;;;;;;;;;;9986143;29;20056;-68
2022/08/15 16:27:40;;;;;;;11.07;8.52;;;;;;;;;;9983653;29;20073;-69
2022/08/15 16:32:40;;;;;;;11.88;8.98;;;;;;;;;;9987588;29;20100;-68
2022/08/15 16:37:40;;;;;;;10.25;9.18;;;;;;;;;;9983569;29;20048;-68
2022/08/15 16:42:46;;;;;;;10.32;9.38;;;;;;;;;;9985109;29;20399;-70
2022/08/15 16:47:53;;;;;;;13.30;10.02;;;;;;;;;;9989486;29;20491;-69
2022/08/15 16:53:07;;;;;;;10.98;10.02;;;;;;;;;;9991538;29;20040;-68
2022/08/15 16:58:15;;;;;;;11.48;10.02;;;;;;;;;;10006399;29;20139;-68
2022/08/15 17:03:31;;;;;;;22.98;15.80;;;;;;;;;;9991967;29;20048;-68
2022/08/15 17:08:38;;;;;;;10.55;9.55;;;;;;;;;;9991333;29;20139;-68
2022/08/15 17:13:52;;;;;;;12.27;9.75;;;;;;;;;;9992035;29;20070;-69
2022/08/15 17:19:11;;;;;;;11.25;10.07;;;;;;;;;;9989397;29;20044;-68
2022/08/15 17:24:12;;;;;;;10.35;9.30;;;;;;;;;;9991536;29;20203;-68
2022/08/15 17:29:56;;;;;;;10.63;9.32;;;;;;;;;;9992005;29;20421;-68
2022/08/15 17:34:53;;;;;;;10.48;9.45;;;;;;;;;;9980907;29;20060;-68
2022/08/15 17:40:10;;;;;;;10.15;9.15;;;;;;;;;;9978206;29;20075;-68
2022/08/15 17:45:10;;;;;;;13.23;9.07;;;;;;;;;;9986290;29;20059;-69
2022/08/15 17:50:31;;;;;;;11.55;9.65;;;;;;;;;;9982625;29;20710;-69
2022/08/15 17:55:51;;;;;;;10.40;9.38;;;;;;;;;;9986427;29;20048;-68
2022/08/15 18:00:52;;;;;;;13.15;9.95;;;;;;;;;;9990129;29;20072;-69
2022/08/15 18:05:49;;;;;;;12.23;9.30;;;;;;;;;;9976341;29;20642;-68
2022/08/15 18:11:01;;;;;;;11.67;10.13;;;;;;;;;;9993925;29;20601;-69
2022/08/15 18:16:09;;;;;;;12.48;9.77;;;;;;;;;;9989173;29;20068;-68
2022/08/15 18:21:26;;;;;;;11.10;9.85;;;;;;;;;;9980721;29;20060;-68
2022/08/15 18:26:25;;;;;;;13.55;10.20;;;;;;;;;;9988140;29;20545;-68
2022/08/15 18:31:43;;;;;;;11.93;10.70;;;;;;;;;;9987986;29;20044;-68
2022/08/15 18:36:52;;;;;;;10.13;9.07;;;;;;;;;;9982948;29;20457;-68
2022/08/15 18:41:49;;;;;;;10.80;9.40;;;;;;;;;;9988277;29;20044;-68
2022/08/15 18:47:13;;;;;;;12.65;10.35;;;;;;;;;;9998825;29;20060;-68
2022/08/15 18:52:12;;;;;;;11.40;10.20;;;;;;;;;;9988615;29;20072;-68
2022/08/15 18:57:16;;;;;;;11.05;9.95;;;;;;;;;;9976681;29;20053;-68
2022/08/15 19:02:17;;;;;;;12.40;10.85;;;;;;;;;;9985898;29;20099;-68
2022/08/15 19:07:21;;;;;;;11.60;10.38;;;;;;;;;;9983877;29;20521;-68
2022/08/15 19:12:20;;;;;;;10.88;9.77;;;;;;;;;;9978285;29;20059;-68
2022/08/15 19:17:32;;;;;;;18.02;10.65;;;;;;;;;;9982727;29;20112;-68
2022/08/15 19:22:30;;;;;;;10.43;9.20;;;;;;;;;;9986963;29;20597;-68
2022/08/15 19:27:45;;;;;;;12.85;9.32;;;;;;;;;;9981379;29;20048;-68
2022/08/15 19:33:17;;;;;;;11.45;9.75;;;;;;;;;;9982717;29;20060;-68
2022/08/15 19:38:21;;;;;;;11.23;9.88;;;;;;;;;;9975451;29;20059;-68
2022/08/15 19:43:25;;;;;;;13.38;10.65;;;;;;;;;;9980247;29;20520;-68
2022/08/15 19:48:44;;;;;;;12.18;10.95;;;;;;;;;;9981933;29;20144;-67
2022/08/15 19:53:43;;;;;;;11.95;10.77;;;;;;;;;;9985678;29;20136;-68
2022/08/15 19:59:08;;;;;;;10.68;8.75;;;;;;;;;;9980934;29;20062;-68
2022/08/15 20:04:17;;;;;;;11.25;9.20;;;;;;;;;;9985257;29;20119;-68
2022/08/15 20:09:53;;;;;;;10.70;9.57;;;;;;;;;;9987568;29;20135;-68
2022/08/15 20:14:53;;;;;;;10.65;9.05;;;;;;;;;;9964084;29;20047;-69
2022/08/15 20:20:04;;;;;;;13.02;10.00;;;;;;;;;;9973107;29;20505;-69
2022/08/15 20:25:07;;;;;;;13.80;10.40;;;;;;;;;;9980800;29;20132;-68
2022/08/15 20:30:14;;;;;;;12.30;9.35;;;;;;;;;;9985605;29;20052;-68
2022/08/15 20:35:18;;;;;;;11.98;10.10;;;;;;;;;;9989225;29;20536;-68
2022/08/15 20:40:17;;;;;;;11.90;10.38;;;;;;;;;;9989516;29;20056;-69
2022/08/15 20:45:23;;;;;;;13.27;10.45;;;;;;;;;;9989235;29;20063;-67
2022/08/15 20:50:25;;;;;;;10.95;9.38;;;;;;;;;;9988922;29;20040;-67
2022/08/15 20:55:30;;;;;;;12.98;10.63;;;;;;;;;;9984144;29;20044;-66
2022/08/15 21:00:28;;;;;;;11.23;9.93;;;;;;;;;;9985670;29;20691;-66
2022/08/15 21:05:58;;;;;;;11.98;10.48;;;;;;;;;;9990830;29;20051;-66
2022/08/15 21:11:19;;;;;;;12.48;10.10;;;;;;;;;;9994151;29;20111;-68
2022/08/15 21:16:39;;;;;;;16.88;10.98;;;;;;;;;;9984679;29;20126;-68
2022/08/15 21:21:39;;;;;;;11.50;10.18;;;;;;;;;;9986689;29;20058;-68
2022/08/15 21:26:39;;;;;;;12.93;10.20;;;;;;;;;;9988875;29;20036;-68
2022/08/15 21:31:39;;;;;;;11.70;10.10;;;;;;;;;;9993390;29;20143;-67
2022/08/15 21:36:44;;;;;;;11.65;10.45;;;;;;;;;;9989240;29;20060;-67
2022/08/15 21:41:49;;;;;;;14.88;10.80;;;;;;;;;;9987283;29;20059;-67
2022/08/15 21:46:52;;;;;;;15.13;10.65;;;;;;;;;;9983440;29;20731;-67
2022/08/15 21:51:55;;;;;;;12.15;10.75;;;;;;;;;;9988002;29;20048;-68
2022/08/15 21:56:53;;;;;;;12.18;10.52;;;;;;;;;;10006331;29;20533;-67
2022/08/15 22:02:03;;;;;;;14.23;10.60;;;;;;;;;;9991878;29;20048;-67
2022/08/15 22:06:59;;;;;;;12.57;10.70;;;;;;;;;;9989018;29;20142;-67
2022/08/15 22:12:00;;;;;;;12.52;10.95;;;;;;;;;;9981600;29;20058;-67
2022/08/15 22:16:58;;;;;;;14.30;11.18;;;;;;;;;;9987107;29;20054;-68
2022/08/15 22:21:57;;;;;;;12.50;9.85;;;;;;;;;;9985409;29;20052;-68
2022/08/15 22:27:02;;;;;;;13.80;10.68;;;;;;;;;;9986992;29;20048;-68
2022/08/15 22:32:04;;;;;;;11.65;10.45;;;;;;;;;;9990873;29;20060;-68
2022/08/15 22:37:20;;;;;;;14.10;10.45;;;;;;;;;;9990129;29;20050;-68
2022/08/15 22:42:32;;;;;;;11.65;9.63;;;;;;;;;;9990461;29;20044;-68
2022/08/15 22:47:29;;;;;;;14.40;11.23;;;;;;;;;;9990601;29;20430;-67
2022/08/15 22:52:26;;;;;;;11.32;9.75;;;;;;;;;;10005233;29;20633;-67
2022/08/15 22:57:24;;;;;;;14.05;10.32;;;;;;;;;;9991678;29;20510;-66
2022/08/15 23:02:41;;;;;;;12.90;10.05;;;;;;;;;;9987184;29;20653;-67
2022/08/15 23:07:52;;;;;;;11.25;9.63;;;;;;;;;;9994206;29;20059;-67
2022/08/15 23:12:52;;;;;;;10.80;8.95;;;;;;;;;;9989544;29;20055;-68
2022/08/15 23:18:03;;;;;;;11.70;9.18;;;;;;;;;;9995701;29;20060;-68
2022/08/15 23:23:05;;;;;;;11.90;9.18;;;;;;;;;;9989198;29;20529;-67
2022/08/15 23:28:02;;;;;;;12.27;9.00;;;;;;;;;;9989554;29;20068;-68
2022/08/15 23:33:01;;;;;;;8.98;7.82;;;;;;;;;;9994453;29;20151;-68
2022/08/15 23:37:59;;;;;;;9.35;7.50;;;;;;;;;;9991945;28;20151;-68
2022/08/15 23:43:05;;;;;;;10.20;8.55;;;;;;;;;;9988341;29;20415;-68
2022/08/15 23:48:02;;;;;;;11.00;7.57;;;;;;;;;;9983844;29;20044;-68
2022/08/15 23:53:00;;;;;;;9.23;7.80;;;;;;;;;;9990406;29;20060;-67
2022/08/15 23:57:59;;;;;;;8.70;7.80;;;;;;;;;;9990669;29;20518;-68
